Time,TemperatureF,DewpointF,PressureIn,WindDirection,WindDirectionDegrees,WindSpeedMPH,WindSpeedGustMPH,Humidity,HourlyPrecipIn,Conditions,Clouds,dailyrainin,SolarRadiationWatts/m^2,SoftwareType,DateUTC
2016-12-05 00:00:00,39.1,39.1,30.15,North,0,0.0,5.3,100,0.00,,,0.00,0,,2016-12-05 08:00:00,
2016-12-05 00:05:00,39.0,39.0,30.15,North,0,0.0,0.0,100,0.00,,,0.00,0,,2016-12-05 08:05:00,
2016-12-05 00:10:00,38.9,38.9,30.15,North,0,0.0,0.0,100,0.00,,,0.00,0,,2016-12-05 08:10:00,
2016-12-05 00:15:00,38.8,38.8,30.15,North,0,0.0,0.9,100,0.00,,,0.00,0,,2016-12-05 08:15:00,
2016-12-05 00:20:00,38.7,38.7,30.15,North,0,0.0,0.9,100,0.00,,,0.00,0,,2016-12-05 08:20:00,
2016-12-05 00:25:00,38.6,38.6,30.18,West,275,0.9,1.4,100,0.00,,,0.00,0,,2016-12-05 08:25:00,
2016-12-05 00:30:00,38.6,38.6,30.15,North,0,0.0,1.4,100,0.00,,,0.00,0,,2016-12-05 08:30:00,
2016-12-05 00:35:00,38.5,38.5,30.15,North,0,0.0,1.4,100,0.00,,,0.00,0,,2016-12-05 08:35:00,
2016-12-05 00:40:00,38.5,38.5,30.15,North,0,0.0,1.4,100,0.00,,,0.00,0,,2016-12-05 08:40:00,
2016-12-05 00:45:00,38.5,38.5,30.15,North,0,0.0,1.4,100,0.00,,,0.00,0,,2016-12-05 08:45:00,
2016-12-05 00:55:00,38.3,38.3,30.15,North,0,0.0,1.4,100,0.00,,,0.00,0,,2016-12-05 08:55:00,
2016-12-05 01:05:00,38.2,38.2,30.15,North,0,0.0,1.4,100,0.00,,,0.00,0,,2016-12-05 09:05:00,
2016-12-05 01:10:00,38.1,38.1,30.15,North,0,0.0,1.4,100,0.00,,,0.00,0,,2016-12-05 09:10:00,
2016-12-05 01:20:00,37.7,37.8,30.15,North,0,0.0,1.4,100,0.00,,,0.00,0,,2016-12-05 09:20:00,
2016-12-05 01:30:00,37.4,37.4,30.15,North,0,0.0,1.4,100,0.00,,,0.00,0,,2016-12-05 09:30:00,
2016-12-05 01:35:00,37.4,37.4,30.15,North,2,0.0,1.4,100,0.00,,,0.00,0,,2016-12-05 09:35:00,
2016-12-05 01:40:00,37.3,37.3,30.15,WNW,289,0.3,1.4,100,0.00,,,0.00,0,,2016-12-05 09:40:00,
2016-12-05 01:45:00,37.2,37.2,30.15,NNE,32,0.8,1.4,100,0.00,,,0.00,0,,2016-12-05 09:45:00,
2016-12-05 01:50:00,37.2,37.2,30.15,North,0,0.0,1.4,100,0.00,,,0.00,0,,2016-12-05 09:50:00,
2016-12-05 01:55:00,37.1,37.1,30.15,North,0,0.0,1.4,100,0.00,,,0.00,0,,2016-12-05 09:55:00,
2016-12-05 02:00:00,37.1,37.1,30.15,North,0,0.0,1.4,100,0.00,,,0.00,0,,2016-12-05 10:00:00,
2016-12-05 02:05:00,37.1,37.1,30.15,North,0,0.0,1.4,100,0.00,,,0.00,0,,2016-12-05 10:05:00,
2016-12-05 02:10:00,37.0,37.0,30.15,North,0,0.0,1.4,100,0.00,,,0.00,0,,2016-12-05 10:10:00,
2016-12-05 02:20:00,36.9,36.9,30.15,ENE,70,0.2,1.4,100,0.00,,,0.00,0,,2016-12-05 10:20:00,
2016-12-05 02:25:00,36.8,36.8,30.15,North,0,0.0,1.4,100,0.00,,,0.00,0,,2016-12-05 10:25:00,
2016-12-05 02:30:00,36.5,36.5,30.15,North,0,0.0,1.4,100,0.00,,,0.00,0,,2016-12-05 10:30:00,
2016-12-05 02:35:00,36.3,36.3,30.15,North,0,0.0,1.4,100,0.00,,,0.00,0,,2016-12-05 10:35:00,
2016-12-05 02:40:00,36.2,36.2,30.15,North,0,0.0,1.4,100,0.00,,,0.00,0,,2016-12-05 10:40:00,
2016-12-05 02:45:00,36.1,36.1,30.15,North,0,0.0,1.4,100,0.00,,,0.00,0,,2016-12-05 10:45:00,
2016-12-05 02:50:00,35.9,35.9,30.15,WNW,293,0.6,1.4,100,0.00,,,0.00,0,,2016-12-05 10:50:00,
2016-12-05 02:55:00,35.8,35.8,30.15,WNW,285,1.0,1.6,100,0.00,,,0.00,0,,2016-12-05 10:55:00,
2016-12-05 03:00:00,35.8,35.8,30.15,North,0,0.0,1.6,100,0.00,,,0.00,0,,2016-12-05 11:00:00,
2016-12-05 03:05:00,35.8,35.8,30.15,North,0,0.0,1.6,100,0.00,,,0.00,0,,2016-12-05 11:05:00,
2016-12-05 03:10:00,35.8,35.8,30.15,North,0,0.0,1.6,100,0.00,,,0.00,0,,2016-12-05 11:10:00,
2016-12-05 03:15:00,36.0,36.0,30.15,North,0,0.0,1.6,100,0.00,,,0.00,0,,2016-12-05 11:15:00,
2016-12-05 03:20:00,35.9,35.9,30.15,NW,324,0.0,1.6,100,0.00,,,0.00,0,,2016-12-05 11:20:00,
2016-12-05 03:25:00,35.8,35.8,30.15,North,0,0.0,1.6,100,0.00,,,0.00,0,,2016-12-05 11:25:00,
2016-12-05 03:30:00,35.8,35.8,30.15,North,0,0.0,1.6,100,0.00,,,0.00,0,,2016-12-05 11:30:00,
2016-12-05 03:35:00,35.8,35.8,30.15,North,0,0.0,1.6,100,0.00,,,0.00,0,,2016-12-05 11:35:00,
2016-12-05 03:40:00,35.6,35.6,30.15,North,0,0.0,1.6,100,0.00,,,0.00,0,,2016-12-05 11:40:00,
2016-12-05 03:45:00,35.4,35.4,30.15,North,0,0.0,1.6,100,0.00,,,0.00,0,,2016-12-05 11:45:00,
2016-12-05 03:50:00,35.3,35.3,30.15,North,0,0.0,1.6,100,0.00,,,0.00,0,,2016-12-05 11:50:00,
2016-12-05 03:55:00,35.3,35.3,30.15,North,0,0.0,1.6,100,0.00,,,0.00,0,,2016-12-05 11:55:00,
2016-12-05 04:00:00,35.2,35.2,30.15,North,0,0.0,1.6,100,0.00,,,0.00,0,,2016-12-05 12:00:00,
2016-12-05 04:05:00,35.1,35.1,30.15,North,0,0.0,1.6,100,0.00,,,0.00,0,,2016-12-05 12:05:00,
2016-12-05 04:10:00,35.0,35.0,30.15,West,281,0.0,1.6,100,0.00,,,0.00,0,,2016-12-05 12:10:00,
2016-12-05 04:15:00,34.9,34.9,30.15,North,0,0.0,1.6,100,0.00,,,0.00,0,,2016-12-05 12:15:00,
2016-12-05 04:20:00,34.9,34.9,30.15,WNW,285,0.4,1.6,100,0.00,,,0.00,0,,2016-12-05 12:20:00,
2016-12-05 04:25:00,34.7,34.8,30.15,West,276,0.1,1.6,100,0.00,,,0.00,0,,2016-12-05 12:25:00,
2016-12-05 04:30:00,34.7,34.7,30.15,WNW,286,0.0,1.6,100,0.00,,,0.00,0,,2016-12-05 12:30:00,
2016-12-05 04:35:00,34.6,34.6,30.15,North,0,0.0,1.8,100,0.00,,,0.00,0,,2016-12-05 12:35:00,
2016-12-05 04:40:00,34.5,34.5,30.15,West,280,0.1,1.8,100,0.00,,,0.00,0,,2016-12-05 12:40:00,
2016-12-05 04:45:00,34.5,34.5,30.15,WNW,297,0.1,1.8,100,0.00,,,0.00,0,,2016-12-05 12:45:00,
2016-12-05 04:50:00,34.5,34.5,30.15,WNW,299,0.6,1.8,100,0.00,,,0.00,0,,2016-12-05 12:50:00,
2016-12-05 04:55:00,34.4,34.4,30.15,WNW,282,0.4,1.8,100,0.00,,,0.00,0,,2016-12-05 12:55:00,
2016-12-05 05:00:00,34.4,34.4,30.15,WNW,289,0.3,1.8,100,0.00,,,0.00,0,,2016-12-05 13:00:00,
2016-12-05 05:05:00,34.4,34.4,30.15,North,0,0.0,1.8,100,0.00,,,0.00,0,,2016-12-05 13:05:00,
2016-12-05 05:10:00,34.3,34.3,30.15,NW,309,0.3,1.8,100,0.00,,,0.00,0,,2016-12-05 13:10:00,
2016-12-05 05:20:00,34.2,34.2,30.15,NW,304,0.6,2.1,100,0.00,,,0.00,0,,2016-12-05 13:20:00,
2016-12-05 05:25:00,34.2,34.2,30.15,North,357,0.5,2.1,100,0.00,,,0.00,0,,2016-12-05 13:25:00,
2016-12-05 05:30:00,34.3,34.3,30.15,North,358,0.9,2.1,100,0.00,,,0.00,0,,2016-12-05 13:30:00,
2016-12-05 05:35:00,34.3,34.3,30.15,North,358,0.3,2.1,100,0.00,,,0.00,0,,2016-12-05 13:35:00,
2016-12-05 05:40:00,34.4,34.4,30.15,NNW,341,0.1,2.1,100,0.00,,,0.00,0,,2016-12-05 13:40:00,
2016-12-05 05:45:00,34.4,34.4,30.15,North,359,0.1,2.3,100,0.00,,,0.00,0,,2016-12-05 13:45:00,
2016-12-05 05:50:00,34.4,34.4,30.15,NNE,27,0.4,2.5,100,0.00,,,0.00,0,,2016-12-05 13:50:00,
2016-12-05 05:55:00,34.4,34.4,30.15,NNW,340,0.7,2.5,100,0.00,,,0.00,0,,2016-12-05 13:55:00,
2016-12-05 06:00:00,34.4,34.4,30.15,North,350,0.7,2.5,100,0.00,,,0.00,0,,2016-12-05 14:00:00,
2016-12-05 06:05:00,34.4,34.4,30.15,North,0,0.0,2.5,100,0.00,,,0.00,0,,2016-12-05 14:05:00,
2016-12-05 06:10:00,34.4,34.4,30.15,NNE,19,0.8,2.5,100,0.00,,,0.00,0,,2016-12-05 14:10:00,
2016-12-05 06:15:00,34.4,34.4,30.15,NNW,337,1.4,2.5,100,0.00,,,0.00,0,,2016-12-05 14:15:00,
2016-12-05 06:20:00,34.8,34.8,30.15,NNW,342,0.5,2.5,100,0.00,,,0.00,0,,2016-12-05 14:20:00,
2016-12-05 06:25:00,34.5,34.5,30.15,NW,308,0.1,2.5,100,0.00,,,0.00,0,,2016-12-05 14:25:00,
2016-12-05 06:30:00,34.5,34.5,30.15,North,350,0.6,2.5,100,0.00,,,0.00,0,,2016-12-05 14:30:00,
2016-12-05 06:35:00,34.5,34.5,30.15,North,349,0.5,2.7,100,0.00,,,0.00,0,,2016-12-05 14:35:00,
2016-12-05 06:40:00,34.5,34.5,30.15,North,1,1.7,3.2,100,0.00,,,0.00,0,,2016-12-05 14:40:00,
2016-12-05 06:45:00,34.5,34.5,30.15,NNW,334,1.5,3.7,100,0.00,,,0.00,0,,2016-12-05 14:45:00,
2016-12-05 06:50:00,34.5,34.5,30.15,North,349,0.6,3.7,100,0.00,,,0.00,0,,2016-12-05 14:50:00,
2016-12-05 06:55:00,34.5,34.5,30.15,North,2,0.3,3.7,100,0.00,,,0.00,0,,2016-12-05 14:55:00,
2016-12-05 07:00:00,34.5,34.5,30.15,NNE,14,0.4,3.7,100,0.00,,,0.00,0,,2016-12-05 15:00:00,
2016-12-05 07:05:00,34.4,34.4,30.15,NNW,346,0.5,3.7,100,0.00,,,0.00,0,,2016-12-05 15:05:00,
2016-12-05 07:10:00,34.4,34.4,30.15,North,4,0.6,3.7,100,0.00,,,0.00,0,,2016-12-05 15:10:00,
2016-12-05 07:20:00,34.4,34.4,30.18,NW,316,0.2,3.7,100,0.00,,,0.00,0,,2016-12-05 15:20:00,
2016-12-05 07:25:00,34.4,34.4,30.18,NW,323,1.0,3.9,100,0.00,,,0.00,0,,2016-12-05 15:25:00,
2016-12-05 07:30:00,34.5,34.5,30.18,North,7,0.5,3.9,100,0.00,,,0.00,0,,2016-12-05 15:30:00,
2016-12-05 07:35:00,34.6,34.6,30.15,NNW,347,1.6,3.9,100,0.00,,,0.00,0,,2016-12-05 15:35:00,
2016-12-05 07:40:00,34.9,34.9,30.15,North,352,0.5,3.9,100,0.00,,,0.00,0,,2016-12-05 15:40:00,
2016-12-05 07:45:00,34.9,34.9,30.15,North,8,0.3,3.9,100,0.00,,,0.00,0,,2016-12-05 15:45:00,
2016-12-05 07:50:00,35.1,35.1,30.15,North,3,1.1,3.9,100,0.00,,,0.00,0,,2016-12-05 15:50:00,
2016-12-05 07:55:00,35.3,35.3,30.15,NNW,329,1.1,3.9,100,0.00,,,0.00,0,,2016-12-05 15:55:00,
2016-12-05 08:00:00,35.3,35.3,30.15,North,10,1.0,3.9,100,0.00,,,0.00,0,,2016-12-05 16:00:00,
2016-12-05 08:05:00,35.4,35.4,30.18,NNW,338,1.2,3.9,100,0.00,,,0.00,0,,2016-12-05 16:05:00,
2016-12-05 08:10:00,35.5,35.5,30.18,North,6,0.7,3.9,100,0.00,,,0.00,0,,2016-12-05 16:10:00,
2016-12-05 08:15:00,35.5,35.5,30.15,NW,323,0.2,3.9,100,0.00,,,0.00,0,,2016-12-05 16:15:00,
2016-12-05 08:20:00,35.8,35.8,30.15,NE,41,1.1,3.9,100,0.00,,,0.00,0,,2016-12-05 16:20:00,
2016-12-05 08:25:00,35.8,35.9,30.15,NNE,15,0.0,3.9,100,0.00,,,0.00,0,,2016-12-05 16:25:00,
2016-12-05 08:30:00,35.9,35.9,30.15,NE,43,0.3,3.9,100,0.00,,,0.00,0,,2016-12-05 16:30:00,
2016-12-05 08:35:00,36.2,36.2,30.15,East,80,1.6,3.9,100,0.00,,,0.00,0,,2016-12-05 16:35:00,
2016-12-05 08:40:00,36.9,36.9,30.15,North,2,0.1,3.9,100,0.00,,,0.00,0,,2016-12-05 16:40:00,
2016-12-05 08:45:00,36.7,36.7,30.15,North,354,0.4,3.9,100,0.00,,,0.00,0,,2016-12-05 16:45:00,
2016-12-05 08:50:00,37.0,37.0,30.15,NNW,329,1.2,3.9,100,0.00,,,0.00,0,,2016-12-05 16:50:00,
2016-12-05 08:55:00,37.6,37.6,30.15,NW,313,0.8,3.9,100,0.00,,,0.00,0,,2016-12-05 16:55:00,
2016-12-05 09:00:00,37.6,37.6,30.15,ENE,65,0.0,3.9,100,0.00,,,0.00,0,,2016-12-05 17:00:00,
2016-12-05 09:05:00,38.1,38.1,30.15,ENE,65,0.4,3.9,100,0.00,,,0.00,0,,2016-12-05 17:05:00,
2016-12-05 09:10:00,39.1,39.1,30.18,NW,319,0.7,3.9,100,0.00,,,0.00,0,,2016-12-05 17:10:00,
2016-12-05 09:15:00,39.1,39.1,30.15,ENE,68,0.1,3.9,100,0.00,,,0.00,0,,2016-12-05 17:15:00,
2016-12-05 09:20:00,39.5,39.5,30.15,NW,315,0.2,3.9,100,0.00,,,0.00,0,,2016-12-05 17:20:00,
2016-12-05 09:25:00,40.1,39.2,30.18,NW,326,1.0,4.4,96,0.00,,,0.00,0,,2016-12-05 17:25:00,
2016-12-05 09:30:00,40.0,38.2,30.18,North,355,0.9,4.4,93,0.00,,,0.00,0,,2016-12-05 17:30:00,
2016-12-05 09:35:00,40.8,38.2,30.18,NNE,25,1.0,4.4,90,0.00,,,0.00,0,,2016-12-05 17:35:00,
2016-12-05 09:40:00,41.5,38.5,30.18,NW,320,0.7,5.7,89,0.00,,,0.00,0,,2016-12-05 17:40:00,
2016-12-05 09:45:00,41.1,37.9,30.18,NW,315,2.4,5.7,88,0.00,,,0.00,0,,2016-12-05 17:45:00,
2016-12-05 09:50:00,41.2,38.0,30.18,NW,316,0.7,5.7,88,0.00,,,0.00,0,,2016-12-05 17:50:00,
2016-12-05 09:55:00,41.7,38.5,30.18,NW,321,0.8,5.7,88,0.00,,,0.00,0,,2016-12-05 17:55:00,
2016-12-05 10:10:00,42.7,38.7,30.15,NNE,15,1.9,7.3,86,0.00,,,0.00,0,,2016-12-05 18:10:00,
2016-12-05 10:15:00,43.2,38.6,30.15,NE,54,1.4,7.3,84,0.00,,,0.00,0,,2016-12-05 18:15:00,
2016-12-05 10:20:00,43.6,38.6,30.15,North,8,2.1,7.3,83,0.00,,,0.00,0,,2016-12-05 18:20:00,
2016-12-05 10:25:00,43.7,38.8,30.15,West,271,1.1,7.3,83,0.00,,,0.00,0,,2016-12-05 18:25:00,
2016-12-05 10:30:00,44.2,38.7,30.15,North,6,0.8,7.3,81,0.00,,,0.00,0,,2016-12-05 18:30:00,
2016-12-05 10:35:00,44.2,37.9,30.15,NNE,13,2.5,7.3,78,0.00,,,0.00,0,,2016-12-05 18:35:00,
2016-12-05 10:40:00,44.5,38.4,30.15,NE,51,0.5,7.3,79,0.00,,,0.00,0,,2016-12-05 18:40:00,
2016-12-05 10:45:00,44.8,38.2,30.15,SSW,210,0.6,7.3,77,0.00,,,0.00,0,,2016-12-05 18:45:00,
2016-12-05 10:50:00,45.2,37.6,30.15,NW,305,2.7,7.3,75,0.00,,,0.00,0,,2016-12-05 18:50:00,
2016-12-05 10:55:00,46.0,36.8,30.15,NNW,338,1.1,7.3,70,0.00,,,0.00,0,,2016-12-05 18:55:00,
2016-12-05 11:05:00,46.6,37.6,30.15,NW,317,0.9,7.3,71,0.00,,,0.00,0,,2016-12-05 19:05:00,
2016-12-05 11:15:00,47.0,36.7,30.15,NE,43,1.7,7.3,67,0.00,,,0.00,0,,2016-12-05 19:15:00,
2016-12-05 11:20:00,47.2,36.9,30.15,NNE,15,2.6,7.3,67,0.00,,,0.00,0,,2016-12-05 19:20:00,
2016-12-05 11:25:00,47.2,37.0,30.15,North,355,2.0,7.3,67,0.00,,,0.00,0,,2016-12-05 19:25:00,
2016-12-05 11:30:00,47.6,36.8,30.15,NW,325,1.5,7.3,66,0.00,,,0.00,0,,2016-12-05 19:30:00,
2016-12-05 11:35:00,47.5,37.0,30.15,NW,315,1.4,7.3,67,0.00,,,0.00,0,,2016-12-05 19:35:00,
2016-12-05 11:40:00,47.9,37.5,30.15,ENE,76,0.5,7.3,67,0.00,,,0.00,0,,2016-12-05 19:40:00,
2016-12-05 11:45:00,47.9,37.3,30.12,North,354,0.4,7.3,66,0.00,,,0.00,0,,2016-12-05 19:45:00,
2016-12-05 11:50:00,48.0,38.2,30.12,North,3,2.8,7.3,69,0.00,,,0.00,0,,2016-12-05 19:50:00,
2016-12-05 12:00:00,48.3,38.2,30.12,NNE,13,1.1,7.3,68,0.00,,,0.00,0,,2016-12-05 20:00:00,
2016-12-05 12:05:00,48.2,38.5,30.12,NNE,29,0.8,7.3,69,0.00,,,0.00,0,,2016-12-05 20:05:00,
2016-12-05 12:10:00,48.3,38.7,30.12,NW,311,0.8,7.3,69,0.00,,,0.00,0,,2016-12-05 20:10:00,
2016-12-05 12:25:00,48.9,38.4,30.12,NW,317,1.4,7.3,67,0.00,,,0.00,0,,2016-12-05 20:25:00,
2016-12-05 12:30:00,49.2,39.2,30.12,NE,37,0.7,7.3,68,0.00,,,0.00,0,,2016-12-05 20:30:00,
2016-12-05 12:35:00,49.4,38.8,30.12,NNW,342,1.8,7.3,67,0.00,,,0.00,0,,2016-12-05 20:35:00,
2016-12-05 12:45:00,49.6,38.9,30.12,WNW,303,0.7,7.3,66,0.00,,,0.00,0,,2016-12-05 20:45:00,
2016-12-05 12:50:00,50.0,39.3,30.12,NE,52,0.5,7.3,67,0.00,,,0.00,0,,2016-12-05 20:50:00,
2016-12-05 12:55:00,50.2,39.2,30.12,NW,312,0.3,7.3,66,0.00,,,0.00,0,,2016-12-05 20:55:00,
2016-12-05 13:05:00,50.2,38.8,30.12,NNE,30,1.1,7.3,65,0.00,,,0.00,0,,2016-12-05 21:05:00,
2016-12-05 13:10:00,50.2,39.1,30.12,NNE,33,1.2,7.3,66,0.00,,,0.00,0,,2016-12-05 21:10:00,
2016-12-05 13:15:00,50.2,38.6,30.12,WNW,301,0.9,7.3,64,0.00,,,0.00,0,,2016-12-05 21:15:00,
2016-12-05 13:20:00,50.5,39.2,30.09,NNW,343,1.6,7.3,65,0.00,,,0.00,0,,2016-12-05 21:20:00,
2016-12-05 13:25:00,50.6,38.8,30.12,North,358,0.5,7.3,64,0.00,,,0.00,0,,2016-12-05 21:25:00,
2016-12-05 13:30:00,50.6,39.5,30.09,NNE,20,1.9,7.3,65,0.00,,,0.00,0,,2016-12-05 21:30:00,
2016-12-05 13:35:00,50.8,39.3,30.09,NNW,327,1.2,7.3,65,0.00,,,0.00,0,,2016-12-05 21:35:00,
2016-12-05 13:40:00,51.0,40.0,30.12,NW,324,1.1,7.3,66,0.00,,,0.00,0,,2016-12-05 21:40:00,
2016-12-05 13:45:00,51.0,38.5,30.09,SE,142,0.5,7.3,62,0.00,,,0.00,0,,2016-12-05 21:45:00,
2016-12-05 13:55:00,51.1,38.0,30.09,NW,316,1.3,7.3,61,0.00,,,0.00,0,,2016-12-05 21:55:00,
2016-12-05 14:00:00,51.1,38.1,30.09,SSW,208,0.3,7.3,61,0.00,,,0.00,0,,2016-12-05 22:00:00,
2016-12-05 14:05:00,51.1,37.8,30.09,West,280,1.0,7.3,60,0.00,,,0.00,0,,2016-12-05 22:05:00,
2016-12-05 14:10:00,51.2,37.7,30.09,WNW,292,0.9,7.3,60,0.00,,,0.00,0,,2016-12-05 22:10:00,
2016-12-05 14:15:00,51.3,37.6,30.09,WNW,290,1.0,7.3,59,0.00,,,0.00,0,,2016-12-05 22:15:00,
2016-12-05 14:25:00,51.3,37.5,30.09,NW,322,1.6,7.3,59,0.00,,,0.00,0,,2016-12-05 22:25:00,
2016-12-05 14:30:00,51.3,37.4,30.09,NW,306,2.1,7.3,59,0.00,,,0.00,0,,2016-12-05 22:30:00,
2016-12-05 14:35:00,51.3,38.5,30.09,NNW,348,0.1,7.3,61,0.00,,,0.00,0,,2016-12-05 22:35:00,
2016-12-05 14:40:00,51.3,37.7,30.09,ENE,71,1.1,7.3,59,0.00,,,0.00,0,,2016-12-05 22:40:00,
2016-12-05 14:45:00,51.3,37.3,30.09,NNE,20,0.3,7.3,58,0.00,,,0.00,0,,2016-12-05 22:45:00,
2016-12-05 14:50:00,51.3,37.5,30.09,North,0,0.0,7.3,59,0.00,,,0.00,0,,2016-12-05 22:50:00,
2016-12-05 14:55:00,51.3,37.9,30.09,North,0,0.0,7.3,60,0.00,,,0.00,0,,2016-12-05 22:55:00,
2016-12-05 15:00:00,51.5,37.6,30.09,North,0,0.0,7.3,59,0.00,,,0.00,0,,2016-12-05 23:00:00,
2016-12-05 15:10:00,51.7,37.0,30.09,NE,49,0.4,7.3,57,0.00,,,0.00,0,,2016-12-05 23:10:00,
2016-12-05 15:15:00,51.8,37.0,30.09,NE,44,0.7,7.3,57,0.00,,,0.00,0,,2016-12-05 23:15:00,
2016-12-05 15:20:00,51.6,37.1,30.09,North,0,0.0,7.3,57,0.00,,,0.00,0,,2016-12-05 23:20:00,
2016-12-05 15:25:00,51.5,36.8,30.09,NE,50,0.8,7.3,57,0.00,,,0.00,0,,2016-12-05 23:25:00,
2016-12-05 15:30:00,51.3,36.8,30.09,North,0,0.0,7.3,57,0.00,,,0.00,0,,2016-12-05 23:30:00,
2016-12-05 15:35:00,51.6,37.2,30.09,SE,142,0.7,7.3,58,0.00,,,0.00,0,,2016-12-05 23:35:00,
2016-12-05 15:40:00,51.3,37.9,30.09,SSW,193,1.3,7.3,60,0.00,,,0.00,0,,2016-12-05 23:40:00,
2016-12-05 15:45:00,50.9,38.1,30.09,South,183,1.6,7.3,61,0.00,,,0.00,0,,2016-12-05 23:45:00,
2016-12-05 15:50:00,50.7,38.1,30.09,South,175,1.1,7.3,62,0.00,,,0.00,0,,2016-12-05 23:50:00,
2016-12-05 15:55:00,50.5,38.0,30.09,SSE,155,1.0,7.3,62,0.00,,,0.00,0,,2016-12-05 23:55:00,
2016-12-05 16:00:00,50.3,37.9,30.09,South,179,1.4,7.3,62,0.00,,,0.00,0,,2016-12-06 00:00:00,
2016-12-05 16:05:00,49.9,38.5,30.09,South,177,0.7,7.3,65,0.00,,,0.00,0,,2016-12-06 00:05:00,
2016-12-05 16:10:00,49.5,38.8,30.06,SSW,195,0.8,7.3,66,0.00,,,0.00,0,,2016-12-06 00:10:00,
2016-12-05 16:20:00,48.7,38.7,30.06,South,177,0.9,7.3,68,0.00,,,0.00,0,,2016-12-06 00:20:00,
2016-12-05 16:25:00,48.3,38.8,30.06,South,189,1.5,7.3,70,0.00,,,0.00,0,,2016-12-06 00:25:00,
2016-12-05 16:30:00,48.0,38.5,30.06,South,181,1.1,7.3,70,0.00,,,0.00,0,,2016-12-06 00:30:00,
2016-12-05 16:35:00,47.7,38.8,30.09,South,188,0.1,7.3,71,0.00,,,0.00,0,,2016-12-06 00:35:00,
2016-12-05 16:40:00,47.6,39.0,30.09,South,179,0.7,7.3,72,0.00,,,0.00,0,,2016-12-06 00:40:00,
2016-12-05 16:45:00,46.8,38.7,30.09,North,0,0.0,7.3,73,0.00,,,0.00,0,,2016-12-06 00:45:00,
2016-12-05 16:50:00,46.5,38.8,30.09,North,0,0.0,7.3,74,0.00,,,0.00,0,,2016-12-06 00:50:00,
2016-12-05 16:55:00,46.2,38.7,30.09,North,0,0.0,7.3,75,0.00,,,0.00,0,,2016-12-06 00:55:00,
2016-12-05 17:00:00,46.1,39.0,30.09,ESE,120,0.1,7.3,76,0.00,,,0.00,0,,2016-12-06 01:00:00,
2016-12-05 17:05:00,45.9,38.9,30.06,North,0,0.0,7.3,76,0.00,,,0.00,0,,2016-12-06 01:05:00,
2016-12-05 17:10:00,45.5,39.0,30.06,SSW,193,0.3,7.3,78,0.00,,,0.00,0,,2016-12-06 01:10:00,
2016-12-05 17:20:00,44.9,39.0,30.06,NE,34,0.2,7.3,80,0.00,,,0.00,0,,2016-12-06 01:20:00,
2016-12-05 17:25:00,45.2,39.0,30.06,ENE,61,1.0,7.3,79,0.00,,,0.00,0,,2016-12-06 01:25:00,
2016-12-05 17:30:00,45.2,38.9,30.06,North,0,0.0,7.3,78,0.00,,,0.00,0,,2016-12-06 01:30:00,
2016-12-05 17:35:00,45.0,38.8,30.06,North,0,0.0,7.3,79,0.00,,,0.00,0,,2016-12-06 01:35:00,
2016-12-05 17:40:00,44.6,38.7,30.09,North,0,0.0,7.3,80,0.00,,,0.00,0,,2016-12-06 01:40:00,
2016-12-05 17:45:00,44.2,38.5,30.06,SSW,197,0.8,7.3,80,0.00,,,0.00,0,,2016-12-06 01:45:00,
2016-12-05 17:50:00,43.7,38.4,30.06,North,0,0.0,7.3,81,0.00,,,0.00,0,,2016-12-06 01:50:00,
2016-12-05 17:55:00,43.4,38.5,30.06,SSE,152,0.2,7.3,83,0.00,,,0.00,0,,2016-12-06 01:55:00,
2016-12-05 18:00:00,43.1,38.6,30.06,North,0,0.0,7.3,84,0.00,,,0.00,0,,2016-12-06 02:00:00,
2016-12-05 18:05:00,42.8,38.8,30.06,North,0,0.0,7.3,85,0.00,,,0.00,0,,2016-12-06 02:05:00,